sensor_id;sensor_type;location;lat;lon;timestamp;pressure;altitude;pressure_sealevel;temperature;humidity
75692;BME280;64307;52.508;6.090;2022-12-18T00:01:25;102953.94;;;-3.55;95.15
75692;BME280;64307;52.508;6.090;2022-12-18T00:03:51;102947.25;;;-3.64;95.74
75692;BME280;64307;52.508;6.090;2022-12-18T00:06:18;102928.03;;;-3.58;95.01
75692;BME280;64307;52.508;6.090;2022-12-18T00:08:44;102935.50;;;-3.48;95.10
75692;BME280;64307;52.508;6.090;2022-12-18T00:11:15;102938.41;;;-3.55;95.22
75692;BME280;64307;52.508;6.090;2022-12-18T00:13:40;102938.53;;;-3.45;94.73
75692;BME280;64307;52.508;6.090;2022-12-18T00:16:08;102945.78;;;-3.34;94.74
75692;BME280;64307;52.508;6.090;2022-12-18T00:18:34;102940.25;;;-3.39;94.56
75692;BME280;64307;52.508;6.090;2022-12-18T00:21:01;102921.75;;;-3.58;94.23
75692;BME280;64307;52.508;6.090;2022-12-18T00:23:27;102919.03;;;-3.58;94.60
75692;BME280;64307;52.508;6.090;2022-12-18T00:25:52;102899.19;;;-3.75;94.88
75692;BME280;64307;52.508;6.090;2022-12-18T00:28:18;102912.84;;;-3.54;94.57
75692;BME280;64307;52.508;6.090;2022-12-18T00:30:43;102920.16;;;-3.54;94.51
75692;BME280;64307;52.508;6.090;2022-12-18T00:33:08;102910.78;;;-3.63;94.15
75692;BME280;64307;52.508;6.090;2022-12-18T00:35:33;102914.81;;;-3.49;94.15
75692;BME280;64307;52.508;6.090;2022-12-18T00:37:59;102914.72;;;-3.54;94.38
75692;BME280;64307;52.508;6.090;2022-12-18T00:40:24;102918.31;;;-3.70;94.14
75692;BME280;64307;52.508;6.090;2022-12-18T00:42:49;102921.25;;;-3.55;93.70
75692;BME280;64307;52.508;6.090;2022-12-18T00:45:25;102924.97;;;-3.61;93.60
75692;BME280;64307;52.508;6.090;2022-12-18T00:47:51;102923.06;;;-3.61;93.63
75692;BME280;64307;52.508;6.090;2022-12-18T00:50:17;102917.44;;;-3.54;93.03
75692;BME280;64307;52.508;6.090;2022-12-18T00:52:42;102922.66;;;-3.69;93.17
75692;BME280;64307;52.508;6.090;2022-12-18T00:55:07;102923.25;;;-3.67;94.01
75692;BME280;64307;52.508;6.090;2022-12-18T00:57:33;102928.47;;;-3.66;93.38
75692;BME280;64307;52.508;6.090;2022-12-18T00:59:58;102924.34;;;-3.68;93.31
75692;BME280;64307;52.508;6.090;2022-12-18T01:02:23;102919.38;;;-3.71;93.30
75692;BME280;64307;52.508;6.090;2022-12-18T01:04:49;102913.78;;;-3.81;93.67
75692;BME280;64307;52.508;6.090;2022-12-18T01:07:14;102912.59;;;-3.90;94.15
75692;BME280;64307;52.508;6.090;2022-12-18T01:09:39;102923.69;;;-3.92;94.28
75692;BME280;64307;52.508;6.090;2022-12-18T01:12:05;102933.50;;;-3.74;93.70
75692;BME280;64307;52.508;6.090;2022-12-18T01:14:30;102930.81;;;-3.91;94.80
75692;BME280;64307;52.508;6.090;2022-12-18T01:16:56;102919.03;;;-3.96;94.27
75692;BME280;64307;52.508;6.090;2022-12-18T01:19:22;102914.31;;;-3.84;93.95
75692;BME280;64307;52.508;6.090;2022-12-18T01:21:49;102921.63;;;-3.85;93.57
75692;BME280;64307;52.508;6.090;2022-12-18T01:24:14;102923.91;;;-3.98;93.61
75692;BME280;64307;52.508;6.090;2022-12-18T01:26:39;102924.06;;;-4.05;94.28
75692;BME280;64307;52.508;6.090;2022-12-18T01:29:05;102913.25;;;-4.17;94.89
75692;BME280;64307;52.508;6.090;2022-12-18T01:31:32;102906.25;;;-4.13;94.95
75692;BME280;64307;52.508;6.090;2022-12-18T01:34:00;102907.31;;;-4.13;94.61
75692;BME280;64307;52.508;6.090;2022-12-18T01:36:29;102913.25;;;-4.17;94.51
75692;BME280;64307;52.508;6.090;2022-12-18T01:38:55;102919.34;;;-4.09;94.28
75692;BME280;64307;52.508;6.090;2022-12-18T01:41:26;102915.31;;;-4.07;94.27
75692;BME280;64307;52.508;6.090;2022-12-18T01:47:20;102915.91;;;-4.22;94.15
75692;BME280;64307;52.508;6.090;2022-12-18T01:49:46;102930.34;;;-4.21;93.88
75692;BME280;64307;52.508;6.090;2022-12-18T01:52:11;102932.88;;;-4.31;93.72
75692;BME280;64307;52.508;6.090;2022-12-18T01:54:37;102923.81;;;-4.37;94.33
75692;BME280;64307;52.508;6.090;2022-12-18T01:57:02;102937.31;;;-4.42;93.80
75692;BME280;64307;52.508;6.090;2022-12-18T01:59:31;102943.38;;;-4.51;94.18
75692;BME280;64307;52.508;6.090;2022-12-18T02:01:57;102925.78;;;-4.49;94.08
75692;BME280;64307;52.508;6.090;2022-12-18T02:04:26;102940.63;;;-4.40;93.97
75692;BME280;64307;52.508;6.090;2022-12-18T02:07:08;102943.75;;;-4.48;93.42
75692;BME280;64307;52.508;6.090;2022-12-18T02:09:46;102946.69;;;-4.49;93.70
75692;BME280;64307;52.508;6.090;2022-12-18T02:12:17;102942.09;;;-4.49;93.86
75692;BME280;64307;52.508;6.090;2022-12-18T02:14:55;102946.22;;;-4.46;93.65
75692;BME280;64307;52.508;6.090;2022-12-18T02:17:33;102938.59;;;-4.61;94.08
75692;BME280;64307;52.508;6.090;2022-12-18T02:20:15;102941.91;;;-4.59;93.84
75692;BME280;64307;52.508;6.090;2022-12-18T02:22:46;102940.28;;;-4.60;93.63
75692;BME280;64307;52.508;6.090;2022-12-18T02:27:54;102941.72;;;-4.69;93.48
75692;BME280;64307;52.508;6.090;2022-12-18T02:30:21;102952.59;;;-4.69;92.86
75692;BME280;64307;52.508;6.090;2022-12-18T02:32:50;102951.28;;;-4.66;93.06
75692;BME280;64307;52.508;6.090;2022-12-18T02:35:22;102943.94;;;-4.66;92.57
75692;BME280;64307;52.508;6.090;2022-12-18T02:37:49;102936.28;;;-4.69;93.01
75692;BME280;64307;52.508;6.090;2022-12-18T02:40:17;102941.03;;;-4.76;93.01
75692;BME280;64307;52.508;6.090;2022-12-18T02:42:42;102947.69;;;-4.83;93.11
75692;BME280;64307;52.508;6.090;2022-12-18T02:45:08;102943.69;;;-4.81;92.88
75692;BME280;64307;52.508;6.090;2022-12-18T02:47:36;102939.88;;;-4.80;92.69
75692;BME280;64307;52.508;6.090;2022-12-18T02:50:36;102939.41;;;-4.77;92.31
75692;BME280;64307;52.508;6.090;2022-12-18T02:53:36;102936.75;;;-4.88;93.25
75692;BME280;64307;52.508;6.090;2022-12-18T02:56:09;102933.59;;;-4.97;93.29
75692;BME280;64307;52.508;6.090;2022-12-18T02:58:58;102924.88;;;-4.99;93.20
75692;BME280;64307;52.508;6.090;2022-12-18T03:01:43;102917.69;;;-5.05;92.98
75692;BME280;64307;52.508;6.090;2022-12-18T03:04:18;102914.84;;;-5.10;92.64
75692;BME280;64307;52.508;6.090;2022-12-18T03:06:49;102900.81;;;-5.07;92.51
75692;BME280;64307;52.508;6.090;2022-12-18T03:09:32;102908.66;;;-4.94;92.48
75692;BME280;64307;52.508;6.090;2022-12-18T03:12:15;102893.31;;;-5.00;92.18
75692;BME280;64307;52.508;6.090;2022-12-18T03:15:02;102899.84;;;-5.01;92.66
75692;BME280;64307;52.508;6.090;2022-12-18T03:17:31;102903.59;;;-5.02;92.06
75692;BME280;64307;52.508;6.090;2022-12-18T03:20:02;102914.03;;;-5.11;91.92
75692;BME280;64307;52.508;6.090;2022-12-18T03:22:30;102905.06;;;-5.11;91.28
75692;BME280;64307;52.508;6.090;2022-12-18T03:25:03;102906.78;;;-5.33;92.05
75692;BME280;64307;52.508;6.090;2022-12-18T03:27:32;102922.69;;;-5.25;92.08
75692;BME280;64307;52.508;6.090;2022-12-18T03:30:08;102913.09;;;-5.16;91.89
75692;BME280;64307;52.508;6.090;2022-12-18T03:32:44;102911.34;;;-5.22;91.83
75692;BME280;64307;52.508;6.090;2022-12-18T03:35:18;102899.41;;;-5.21;91.49
75692;BME280;64307;52.508;6.090;2022-12-18T03:37:44;102905.44;;;-5.19;91.69
75692;BME280;64307;52.508;6.090;2022-12-18T03:40:10;102897.78;;;-5.22;91.09
75692;BME280;64307;52.508;6.090;2022-12-18T03:43:03;102906.50;;;-5.20;91.45
75692;BME280;64307;52.508;6.090;2022-12-18T03:45:37;102896.63;;;-5.26;91.76
75692;BME280;64307;52.508;6.090;2022-12-18T03:48:27;102899.34;;;-5.26;91.89
75692;BME280;64307;52.508;6.090;2022-12-18T03:51:02;102904.44;;;-5.30;91.25
75692;BME280;64307;52.508;6.090;2022-12-18T03:54:09;102903.69;;;-5.25;91.36
75692;BME280;64307;52.508;6.090;2022-12-18T03:56:41;102911.75;;;-5.42;91.31
75692;BME280;64307;52.508;6.090;2022-12-18T03:59:08;102897.84;;;-5.45;91.08
75692;BME280;64307;52.508;6.090;2022-12-18T04:01:39;102890.97;;;-5.36;91.23
75692;BME280;64307;52.508;6.090;2022-12-18T04:04:06;102882.84;;;-5.36;91.26
75692;BME280;64307;52.508;6.090;2022-12-18T04:06:33;102884.25;;;-5.34;91.41
75692;BME280;64307;52.508;6.090;2022-12-18T04:08:59;102876.47;;;-5.42;90.81
75692;BME280;64307;52.508;6.090;2022-12-18T04:11:25;102890.72;;;-5.35;90.18
75692;BME280;64307;52.508;6.090;2022-12-18T04:13:55;102883.44;;;-5.34;90.33
75692;BME280;64307;52.508;6.090;2022-12-18T04:16:21;102876.97;;;-5.45;90.10
75692;BME280;64307;52.508;6.090;2022-12-18T04:18:46;102888.41;;;-5.43;89.98
75692;BME280;64307;52.508;6.090;2022-12-18T04:21:12;102872.94;;;-5.42;90.22
75692;BME280;64307;52.508;6.090;2022-12-18T04:23:37;102880.59;;;-5.39;90.13
75692;BME280;64307;52.508;6.090;2022-12-18T04:26:02;102877.44;;;-5.48;90.20
75692;BME280;64307;52.508;6.090;2022-12-18T04:28:27;102882.97;;;-5.43;90.54
75692;BME280;64307;52.508;6.090;2022-12-18T04:30:53;102866.44;;;-5.41;89.98
75692;BME280;64307;52.508;6.090;2022-12-18T04:33:18;102884.53;;;-5.47;90.17
75692;BME280;64307;52.508;6.090;2022-12-18T04:35:43;102883.22;;;-5.44;89.79
75692;BME280;64307;52.508;6.090;2022-12-18T04:38:09;102881.69;;;-5.52;89.96
75692;BME280;64307;52.508;6.090;2022-12-18T04:40:38;102884.38;;;-5.40;89.93
75692;BME280;64307;52.508;6.090;2022-12-18T04:43:04;102882.84;;;-5.48;89.77
75692;BME280;64307;52.508;6.090;2022-12-18T04:45:30;102884.13;;;-5.39;89.25
75692;BME280;64307;52.508;6.090;2022-12-18T04:48:00;102882.84;;;-5.36;89.05
75692;BME280;64307;52.508;6.090;2022-12-18T04:50:26;102890.72;;;-5.35;89.26
75692;BME280;64307;52.508;6.090;2022-12-18T04:52:51;102888.59;;;-5.33;89.29
75692;BME280;64307;52.508;6.090;2022-12-18T04:55:16;102886.84;;;-5.39;89.60
75692;BME280;64307;52.508;6.090;2022-12-18T04:57:42;102882.25;;;-5.38;88.82
75692;BME280;64307;52.508;6.090;2022-12-18T05:00:07;102884.72;;;-5.37;88.84
75692;BME280;64307;52.508;6.090;2022-12-18T05:02:33;102891.44;;;-5.39;89.02
75692;BME280;64307;52.508;6.090;2022-12-18T05:04:58;102894.63;;;-5.31;89.13
75692;BME280;64307;52.508;6.090;2022-12-18T05:07:24;102901.34;;;-5.33;88.74
75692;BME280;64307;52.508;6.090;2022-12-18T05:09:49;102904.31;;;-5.35;88.84
75692;BME280;64307;52.508;6.090;2022-12-18T05:12:15;102888.13;;;-5.30;89.01
75692;BME280;64307;52.508;6.090;2022-12-18T05:14:40;102884.38;;;-5.40;89.07
75692;BME280;64307;52.508;6.090;2022-12-18T05:17:06;102883.19;;;-5.33;88.58
75692;BME280;64307;52.508;6.090;2022-12-18T05:19:31;102909.03;;;-5.30;88.41
75692;BME280;64307;52.508;6.090;2022-12-18T05:21:57;102896.41;;;-5.36;88.73
75692;BME280;64307;52.508;6.090;2022-12-18T05:24:22;102906.44;;;-5.37;88.46
75692;BME280;64307;52.508;6.090;2022-12-18T05:26:47;102896.50;;;-5.31;88.33
75692;BME280;64307;52.508;6.090;2022-12-18T05:29:13;102894.53;;;-5.36;88.12
75692;BME280;64307;52.508;6.090;2022-12-18T05:31:38;102907.34;;;-5.31;88.69
75692;BME280;64307;52.508;6.090;2022-12-18T05:34:04;102905.59;;;-5.37;88.50
75692;BME280;64307;52.508;6.090;2022-12-18T05:36:30;102910.91;;;-5.31;88.29
75692;BME280;64307;52.508;6.090;2022-12-18T05:38:55;102911.16;;;-5.32;88.36
75692;BME280;64307;52.508;6.090;2022-12-18T05:41:20;102920.94;;;-5.31;88.11
75692;BME280;64307;52.508;6.090;2022-12-18T05:43:46;102925.91;;;-5.28;87.79
75692;BME280;64307;52.508;6.090;2022-12-18T05:46:13;102922.00;;;-5.32;87.87
75692;BME280;64307;52.508;6.090;2022-12-18T05:48:38;102914.34;;;-5.35;87.50
75692;BME280;64307;52.508;6.090;2022-12-18T05:51:14;102923.06;;;-5.33;87.84
75692;BME280;64307;52.508;6.090;2022-12-18T05:53:40;102909.53;;;-5.45;88.29
75692;BME280;64307;52.508;6.090;2022-12-18T05:56:11;102929.81;;;-5.36;87.94
75692;BME280;64307;52.508;6.090;2022-12-18T05:58:36;102932.41;;;-5.41;88.07
75692;BME280;64307;52.508;6.090;2022-12-18T06:03:35;102922.75;;;-5.48;88.15
75692;BME280;64307;52.508;6.090;2022-12-18T06:06:01;102918.38;;;-5.49;87.69
75692;BME280;64307;52.508;6.090;2022-12-18T06:08:26;102923.34;;;-5.58;88.81
75692;BME280;64307;52.508;6.090;2022-12-18T06:10:52;102911.78;;;-5.53;88.78
75692;BME280;64307;52.508;6.090;2022-12-18T06:13:19;102918.03;;;-5.53;88.33
75692;BME280;64307;52.508;6.090;2022-12-18T06:15:44;102921.00;;;-5.54;88.46
75692;BME280;64307;52.508;6.090;2022-12-18T06:18:10;102921.94;;;-5.49;88.93
75692;BME280;64307;52.508;6.090;2022-12-18T06:20:35;102914.63;;;-5.48;88.58
75692;BME280;64307;52.508;6.090;2022-12-18T06:23:02;102920.06;;;-5.48;88.64
75692;BME280;64307;52.508;6.090;2022-12-18T06:25:28;102911.69;;;-5.58;88.97
75692;BME280;64307;52.508;6.090;2022-12-18T06:27:53;102904.03;;;-5.61;89.33
75692;BME280;64307;52.508;6.090;2022-12-18T06:30:19;102897.63;;;-5.55;89.32
75692;BME280;64307;52.508;6.090;2022-12-18T06:32:44;102893.16;;;-5.61;89.18
75692;BME280;64307;52.508;6.090;2022-12-18T06:35:10;102897.53;;;-5.72;89.08
75692;BME280;64307;52.508;6.090;2022-12-18T06:37:35;102892.22;;;-5.55;88.66
75692;BME280;64307;52.508;6.090;2022-12-18T06:40:01;102896.00;;;-5.56;88.23
75692;BME280;64307;52.508;6.090;2022-12-18T06:42:26;102889.94;;;-5.47;88.51
75692;BME280;64307;52.508;6.090;2022-12-18T06:44:51;102882.13;;;-5.43;87.94
75692;BME280;64307;52.508;6.090;2022-12-18T06:47:18;102880.13;;;-5.36;87.85
75692;BME280;64307;52.508;6.090;2022-12-18T06:49:43;102868.69;;;-5.38;88.16
75692;BME280;64307;52.508;6.090;2022-12-18T06:52:08;102863.53;;;-5.51;88.36
75692;BME280;64307;52.508;6.090;2022-12-18T06:54:34;102866.94;;;-5.44;88.07
75692;BME280;64307;52.508;6.090;2022-12-18T06:56:59;102889.41;;;-5.60;88.20
75692;BME280;64307;52.508;6.090;2022-12-18T06:59:24;102877.59;;;-5.54;87.98
75692;BME280;64307;52.508;6.090;2022-12-18T07:01:49;102879.72;;;-5.56;88.12
75692;BME280;64307;52.508;6.090;2022-12-18T07:04:15;102874.28;;;-5.68;88.49
75692;BME280;64307;52.508;6.090;2022-12-18T07:06:40;102867.44;;;-5.70;88.86
75692;BME280;64307;52.508;6.090;2022-12-18T07:09:05;102862.41;;;-5.78;88.72
75692;BME280;64307;52.508;6.090;2022-12-18T07:11:32;102867.03;;;-5.79;88.84
75692;BME280;64307;52.508;6.090;2022-12-18T07:13:58;102868.03;;;-5.68;89.00
75692;BME280;64307;52.508;6.090;2022-12-18T07:16:24;102863.81;;;-5.64;88.52
75692;BME280;64307;52.508;6.090;2022-12-18T07:18:49;102857.75;;;-5.55;88.82
75692;BME280;64307;52.508;6.090;2022-12-18T07:21:16;102853.59;;;-5.46;87.60
75692;BME280;64307;52.508;6.090;2022-12-18T07:23:42;102855.13;;;-5.38;87.39
75692;BME280;64307;52.508;6.090;2022-12-18T07:26:10;102865.66;;;-5.53;87.78
75692;BME280;64307;52.508;6.090;2022-12-18T07:28:37;102863.06;;;-5.48;87.98
75692;BME280;64307;52.508;6.090;2022-12-18T07:31:06;102870.38;;;-5.49;87.28
75692;BME280;64307;52.508;6.090;2022-12-18T07:33:32;102865.84;;;-5.32;87.62
75692;BME280;64307;52.508;6.090;2022-12-18T07:36:06;102869.66;;;-5.44;87.14
75692;BME280;64307;52.508;6.090;2022-12-18T07:38:33;102865.00;;;-5.32;86.90
75692;BME280;64307;52.508;6.090;2022-12-18T07:43:27;102864.88;;;-5.37;86.93
75692;BME280;64307;52.508;6.090;2022-12-18T07:45:53;102870.91;;;-5.35;87.21
75692;BME280;64307;52.508;6.090;2022-12-18T07:48:18;102866.81;;;-5.38;87.29
75692;BME280;64307;52.508;6.090;2022-12-18T07:50:43;102868.38;;;-5.25;86.83
75692;BME280;64307;52.508;6.090;2022-12-18T07:53:08;102880.28;;;-5.15;87.16
75692;BME280;64307;52.508;6.090;2022-12-18T07:55:34;102869.66;;;-5.16;86.21
75692;BME280;64307;52.508;6.090;2022-12-18T07:58:03;102863.59;;;-5.07;86.21
75692;BME280;64307;52.508;6.090;2022-12-18T08:00:29;102859.03;;;-4.89;85.08
75692;BME280;64307;52.508;6.090;2022-12-18T08:02:54;102850.78;;;-4.78;85.20
75692;BME280;64307;52.508;6.090;2022-12-18T08:05:20;102851.69;;;-4.89;85.24
75692;BME280;64307;52.508;6.090;2022-12-18T08:07:46;102843.28;;;-4.87;85.58
75692;BME280;64307;52.508;6.090;2022-12-18T08:10:11;102832.69;;;-4.72;84.90
75692;BME280;64307;52.508;6.090;2022-12-18T08:12:36;102825.59;;;-4.57;84.61
75692;BME280;64307;52.508;6.090;2022-12-18T08:15:02;102832.88;;;-4.62;84.52
75692;BME280;64307;52.508;6.090;2022-12-18T08:17:27;102840.03;;;-4.56;84.71
75692;BME280;64307;52.508;6.090;2022-12-18T08:19:52;102832.50;;;-4.49;84.37
75692;BME280;64307;52.508;6.090;2022-12-18T08:22:18;102823.47;;;-4.38;84.29
75692;BME280;64307;52.508;6.090;2022-12-18T08:24:43;102822.56;;;-4.44;83.98
75692;BME280;64307;52.508;6.090;2022-12-18T08:27:09;102821.41;;;-4.31;83.59
75692;BME280;64307;52.508;6.090;2022-12-18T08:29:34;102808.47;;;-4.57;84.22
75692;BME280;64307;52.508;6.090;2022-12-18T08:32:00;102815.38;;;-4.33;84.15
75692;BME280;64307;52.508;6.090;2022-12-18T08:34:25;102803.59;;;-4.55;84.51
75692;BME280;64307;52.508;6.090;2022-12-18T08:36:50;102810.31;;;-4.25;83.87
75692;BME280;64307;52.508;6.090;2022-12-18T08:39:16;102808.69;;;-4.26;83.48
75692;BME280;64307;52.508;6.090;2022-12-18T08:41:41;102797.22;;;-4.11;83.72
75692;BME280;64307;52.508;6.090;2022-12-18T08:44:07;102819.63;;;-3.82;82.91
75692;BME280;64307;52.508;6.090;2022-12-18T08:46:51;102814.69;;;-3.64;82.79
75692;BME280;64307;52.508;6.090;2022-12-18T08:49:16;102805.69;;;-3.64;82.75
75692;BME280;64307;52.508;6.090;2022-12-18T08:51:42;102814.19;;;-3.82;82.73
75692;BME280;64307;52.508;6.090;2022-12-18T08:54:08;102805.72;;;-3.86;82.90
75692;BME280;64307;52.508;6.090;2022-12-18T08:56:35;102803.97;;;-3.49;80.95
75692;BME280;64307;52.508;6.090;2022-12-18T08:59:01;102810.75;;;-3.73;82.08
75692;BME280;64307;52.508;6.090;2022-12-18T09:01:26;102814.63;;;-3.69;81.25
75692;BME280;64307;52.508;6.090;2022-12-18T09:03:51;102817.00;;;-3.51;81.20
75692;BME280;64307;52.508;6.090;2022-12-18T09:06:20;102809.13;;;-3.74;81.39
75692;BME280;64307;52.508;6.090;2022-12-18T09:08:46;102811.59;;;-3.72;81.71
75692;BME280;64307;52.508;6.090;2022-12-18T09:11:20;102821.50;;;-3.40;80.97
75692;BME280;64307;52.508;6.090;2022-12-18T09:13:46;102821.22;;;-3.16;79.96
75692;BME280;64307;52.508;6.090;2022-12-18T09:16:11;102823.72;;;-3.10;79.26
75692;BME280;64307;52.508;6.090;2022-12-18T09:18:37;102790.69;;;-3.18;79.76
75692;BME280;64307;52.508;6.090;2022-12-18T09:21:21;102809.88;;;-2.77;79.82
75692;BME280;64307;52.508;6.090;2022-12-18T09:23:50;102810.28;;;-2.58;78.77
75692;BME280;64307;52.508;6.090;2022-12-18T09:26:16;102805.16;;;-2.55;78.51
75692;BME280;64307;52.508;6.090;2022-12-18T09:28:43;102812.50;;;-2.55;78.45
75692;BME280;64307;52.508;6.090;2022-12-18T09:31:11;102815.66;;;-2.36;77.17
75692;BME280;64307;52.508;6.090;2022-12-18T09:33:37;102824.69;;;-2.63;78.74
75692;BME280;64307;52.508;6.090;2022-12-18T09:36:04;102810.56;;;-2.60;78.84
75692;BME280;64307;52.508;6.090;2022-12-18T09:38:29;102815.22;;;-2.13;78.06
75692;BME280;64307;52.508;6.090;2022-12-18T09:41:30;102817.22;;;-2.45;78.26
75692;BME280;64307;52.508;6.090;2022-12-18T09:47:23;102836.50;;;-2.20;77.08
75692;BME280;64307;52.508;6.090;2022-12-18T09:49:53;102824.69;;;-2.31;77.72
75692;BME280;64307;52.508;6.090;2022-12-18T09:52:31;102808.22;;;-2.04;77.10
75692;BME280;64307;52.508;6.090;2022-12-18T09:57:49;102801.84;;;-2.20;77.07
75692;BME280;64307;52.508;6.090;2022-12-18T10:00:19;102779.28;;;-2.05;77.46
75692;BME280;64307;52.508;6.090;2022-12-18T10:02:45;102756.81;;;-2.22;77.98
75692;BME280;64307;52.508;6.090;2022-12-18T10:05:14;102755.31;;;-1.88;76.76
75692;BME280;64307;52.508;6.090;2022-12-18T10:07:52;102745.16;;;-2.08;77.53
75692;BME280;64307;52.508;6.090;2022-12-18T10:10:43;102732.41;;;-1.82;76.93
75692;BME280;64307;52.508;6.090;2022-12-18T10:16:07;102727.63;;;-1.30;74.68
75692;BME280;64307;52.508;6.090;2022-12-18T10:21:35;102719.72;;;-0.91;72.99
75692;BME280;64307;52.508;6.090;2022-12-18T10:27:15;102711.25;;;-1.30;73.89
75692;BME280;64307;52.508;6.090;2022-12-18T10:29:44;102711.72;;;-1.63;74.98
75692;BME280;64307;52.508;6.090;2022-12-18T10:32:28;102703.59;;;-1.38;74.57
75692;BME280;64307;52.508;6.090;2022-12-18T10:34:56;102712.59;;;-1.32;73.83
75692;BME280;64307;52.508;6.090;2022-12-18T10:37:24;102714.22;;;-1.31;73.97
75692;BME280;64307;52.508;6.090;2022-12-18T10:40:13;102718.63;;;-1.15;73.71
75692;BME280;64307;52.508;6.090;2022-12-18T10:42:39;102706.31;;;-1.38;73.79
75692;BME280;64307;52.508;6.090;2022-12-18T10:45:12;102715.91;;;-1.15;73.51
75692;BME280;64307;52.508;6.090;2022-12-18T10:47:43;102700.03;;;-1.23;74.00
75692;BME280;64307;52.508;6.090;2022-12-18T10:50:40;102701.94;;;-1.04;72.79
75692;BME280;64307;52.508;6.090;2022-12-18T10:53:05;102698.94;;;-1.27;73.36
75692;BME280;64307;52.508;6.090;2022-12-18T10:55:33;102701.66;;;-1.32;73.80
75692;BME280;64307;52.508;6.090;2022-12-18T10:58:32;102694.28;;;-1.37;74.61
75692;BME280;64307;52.508;6.090;2022-12-18T11:01:10;102687.75;;;-1.26;73.84
75692;BME280;64307;52.508;6.090;2022-12-18T11:03:45;102683.09;;;-1.30;74.02
75692;BME280;64307;52.508;6.090;2022-12-18T11:06:22;102678.44;;;-1.25;74.89
75692;BME280;64307;52.508;6.090;2022-12-18T11:09:04;102679.81;;;-1.22;74.94
75692;BME280;64307;52.508;6.090;2022-12-18T11:11:31;102688.81;;;-0.92;73.73
75692;BME280;64307;52.508;6.090;2022-12-18T11:14:04;102680.63;;;-1.02;73.97
75692;BME280;64307;52.508;6.090;2022-12-18T11:16:36;102684.72;;;-0.99;73.73
75692;BME280;64307;52.508;6.090;2022-12-18T11:19:34;102685.00;;;-0.80;73.35
75692;BME280;64307;52.508;6.090;2022-12-18T11:22:03;102696.19;;;-0.82;73.53
75692;BME280;64307;52.508;6.090;2022-12-18T11:24:42;102695.63;;;-0.69;73.09
75692;BME280;64307;52.508;6.090;2022-12-18T11:27:17;102697.56;;;-0.85;73.40
75692;BME280;64307;52.508;6.090;2022-12-18T11:29:43;102697.31;;;-1.03;73.90
75692;BME280;64307;52.508;6.090;2022-12-18T11:32:25;102694.28;;;-1.12;74.17
75692;BME280;64307;52.508;6.090;2022-12-18T11:35:01;102681.72;;;-1.08;74.33
75692;BME280;64307;52.508;6.090;2022-12-18T11:37:28;102670.78;;;-0.98;74.92
75692;BME280;64307;52.508;6.090;2022-12-18T11:40:10;102657.69;;;-1.01;75.30
75692;BME280;64307;52.508;6.090;2022-12-18T11:42:45;102645.06;;;-0.92;74.94
75692;BME280;64307;52.508;6.090;2022-12-18T11:47:56;102632.78;;;-1.14;74.93
75692;BME280;64307;52.508;6.090;2022-12-18T11:50:48;102642.06;;;-0.85;74.92
75692;BME280;64307;52.508;6.090;2022-12-18T11:53:15;102648.06;;;-0.83;75.17
75692;BME280;64307;52.508;6.090;2022-12-18T11:55:52;102643.16;;;-0.91;74.40
75692;BME280;64307;52.508;6.090;2022-12-18T11:58:44;102631.41;;;-0.92;75.73
75692;BME280;64307;52.508;6.090;2022-12-18T12:01:33;102640.44;;;-0.91;75.61
75692;BME280;64307;52.508;6.090;2022-12-18T12:04:20;102639.06;;;-1.04;75.96
75692;BME280;64307;52.508;6.090;2022-12-18T12:07:16;102627.84;;;-0.97;75.92
75692;BME280;64307;52.508;6.090;2022-12-18T12:10:08;102596.06;;;-0.78;76.13
75692;BME280;64307;52.508;6.090;2022-12-18T12:17:49;102578.88;;;-0.78;75.40
75692;BME280;64307;52.508;6.090;2022-12-18T12:20:35;102563.00;;;-0.82;75.12
75692;BME280;64307;52.508;6.090;2022-12-18T12:25:52;102557.78;;;-0.68;74.67
75692;BME280;64307;52.508;6.090;2022-12-18T12:28:47;102570.00;;;-0.55;74.18
75692;BME280;64307;52.508;6.090;2022-12-18T12:34:17;102576.09;;;-0.68;74.15
75692;BME280;64307;52.508;6.090;2022-12-18T12:37:29;102565.69;;;-0.66;74.66
75692;BME280;64307;52.508;6.090;2022-12-18T12:39:38;102557.16;;;-0.55;74.70
75692;BME280;64307;52.508;6.090;2022-12-18T12:45:22;102556.66;;;-0.67;75.04
75692;BME280;64307;52.508;6.090;2022-12-18T12:47:52;102552.50;;;-0.49;75.23
75692;BME280;64307;52.508;6.090;2022-12-18T12:50:20;102541.03;;;-0.56;74.70
75692;BME280;64307;52.508;6.090;2022-12-18T12:52:50;102539.38;;;-0.52;74.45
75692;BME280;64307;52.508;6.090;2022-12-18T12:55:27;102540.19;;;-0.57;74.57
75692;BME280;64307;52.508;6.090;2022-12-18T12:58:14;102521.53;;;-0.45;73.94
75692;BME280;64307;52.508;6.090;2022-12-18T13:04:27;102523.47;;;-0.45;73.74
75692;BME280;64307;52.508;6.090;2022-12-18T13:06:37;102524.84;;;-0.53;73.71
75692;BME280;64307;52.508;6.090;2022-12-18T13:09:05;102515.34;;;-0.60;74.17
75692;BME280;64307;52.508;6.090;2022-12-18T13:11:35;102520.75;;;-0.55;74.11
75692;BME280;64307;52.508;6.090;2022-12-18T13:14:31;102509.78;;;-0.45;74.37
75692;BME280;64307;52.508;6.090;2022-12-18T13:19:42;102510.81;;;-0.36;73.82
75692;BME280;64307;52.508;6.090;2022-12-18T13:22:21;102516.34;;;-0.41;74.02
75692;BME280;64307;52.508;6.090;2022-12-18T13:24:47;102504.31;;;-0.45;73.80
75692;BME280;64307;52.508;6.090;2022-12-18T13:46:29;102482.38;;;-0.40;74.01
75692;BME280;64307;52.508;6.090;2022-12-18T13:49:04;102482.38;;;-0.40;74.06
75692;BME280;64307;52.508;6.090;2022-12-18T13:51:33;102490.28;;;-0.34;73.44
75692;BME280;64307;52.508;6.090;2022-12-18T13:56:47;102482.38;;;-0.35;73.54
75692;BME280;64307;52.508;6.090;2022-12-18T13:59:19;102476.53;;;-0.29;73.77
75692;BME280;64307;52.508;6.090;2022-12-18T14:01:55;102469.16;;;-0.28;73.57
75692;BME280;64307;52.508;6.090;2022-12-18T14:04:25;102471.28;;;-0.20;73.09
75692;BME280;64307;52.508;6.090;2022-12-18T14:07:28;102468.81;;;-0.17;72.72
75692;BME280;64307;52.508;6.090;2022-12-18T14:10:01;102472.69;;;-0.23;73.06
75692;BME280;64307;52.508;6.090;2022-12-18T14:12:28;102485.41;;;-0.03;72.83
75692;BME280;64307;52.508;6.090;2022-12-18T14:18:01;102464.13;;;-0.11;72.39
75692;BME280;64307;52.508;6.090;2022-12-18T14:20:29;102465.13;;;-0.02;72.85